createdAt,value
2018-04-17T00:05:39.927Z,11.65
2018-04-17T00:11:44.299Z,11.43
2018-04-17T00:17:48.786Z,11.33
2018-04-17T00:23:53.349Z,11.23
2018-04-17T00:29:57.878Z,11.15
2018-04-17T00:36:02.281Z,11.08
2018-04-17T00:42:07.446Z,10.88
2018-04-17T00:48:12.289Z,10.75
2018-04-17T00:54:16.741Z,10.52
2018-04-17T01:00:21.118Z,10.61
2018-04-17T01:06:25.583Z,10.59
2018-04-17T01:12:30.800Z,10.52
2018-04-17T01:18:35.196Z,10.42
2018-04-17T01:24:40.096Z,10.57
2018-04-17T01:30:44.696Z,10.46
2018-04-17T01:36:49.105Z,10.37
2018-04-17T01:42:54.264Z,10.46
2018-04-17T01:48:58.703Z,10.39
2018-04-17T01:55:03.161Z,10.30
2018-04-17T02:01:07.641Z,10.29
2018-04-17T02:07:12.027Z,10.37
2018-04-17T02:13:16.427Z,10.22
2018-04-17T02:19:20.874Z,10.24
2018-04-17T02:25:25.342Z,10.10
2018-04-17T02:31:29.746Z,9.97
2018-04-17T02:37:34.137Z,9.99
2018-04-17T02:43:38.520Z,9.99
2018-04-17T02:49:43.235Z,9.79
2018-04-17T02:55:48.440Z,9.68
2018-04-17T03:01:52.818Z,9.70
2018-04-17T03:07:58.093Z,9.61
2018-04-17T03:14:03.234Z,9.52
2018-04-17T03:20:07.845Z,9.30
2018-04-17T03:26:12.272Z,9.47
2018-04-17T03:32:16.655Z,9.40
2018-04-17T03:38:21.103Z,9.19
2018-04-17T03:44:26.307Z,9.06
2018-04-17T03:50:30.667Z,9.06
2018-04-17T03:56:35.056Z,9.07
2018-04-17T04:02:39.458Z,8.91
2018-04-17T04:08:43.929Z,8.89
2018-04-17T04:14:48.392Z,8.94
2018-04-17T04:21:10.679Z,8.95
2018-04-17T04:27:15.070Z,8.93
2018-04-17T04:33:19.466Z,8.91
2018-04-17T04:39:23.923Z,9.06
2018-04-17T04:45:28.512Z,9.13
2018-04-17T04:51:32.917Z,9.16
2018-04-17T04:57:37.344Z,9.18
2018-04-17T05:03:41.936Z,8.99
2018-04-17T05:09:46.346Z,9.25
2018-04-17T05:15:50.748Z,9.30
2018-04-17T05:21:55.927Z,9.21
2018-04-17T05:28:00.343Z,9.58
2018-04-17T05:34:04.744Z,9.53
2018-04-17T05:40:09.287Z,9.67
2018-04-17T05:46:14.791Z,9.73
2018-04-17T05:52:19.933Z,9.90
2018-04-17T05:58:24.330Z,10.23
2018-04-17T06:04:28.763Z,10.35
2018-04-17T06:10:33.210Z,10.51
2018-04-17T06:16:37.666Z,10.73
2018-04-17T06:22:42.077Z,10.98
2018-04-17T06:28:46.457Z,11.29
2018-04-17T06:34:50.950Z,11.20
2018-04-17T06:40:55.356Z,11.46
2018-04-17T06:46:59.744Z,12.30
2018-04-17T06:53:04.968Z,15.62
2018-04-17T06:59:09.588Z,20.58
2018-04-17T07:05:14.070Z,20.29
2018-04-17T07:11:18.455Z,18.05
2018-04-17T07:17:22.869Z,17.07
2018-04-17T07:23:27.282Z,16.46
2018-04-17T07:29:31.741Z,16.46
2018-04-17T07:35:36.855Z,16.15
2018-04-17T07:41:41.442Z,16.22
2018-04-17T07:48:03.705Z,16.55
2018-04-17T07:54:08.174Z,17.11
2018-04-17T08:00:12.586Z,17.19
2018-04-17T08:06:17.002Z,17.67
2018-04-17T08:12:22.241Z,18.18
2018-04-17T08:18:26.722Z,18.36
2018-04-17T08:24:31.131Z,18.62
2018-04-17T08:30:35.501Z,18.85
2018-04-17T08:36:40.753Z,19.30
2018-04-17T08:42:45.198Z,19.73
2018-04-17T08:48:49.669Z,20.18
2018-04-17T08:54:54.817Z,20.47
2018-04-17T09:00:59.203Z,20.95
2018-04-17T09:07:03.660Z,21.57
2018-04-17T09:13:08.047Z,21.96
2018-04-17T09:19:13.272Z,21.93
2018-04-17T09:25:17.692Z,22.69
2018-04-17T09:31:22.148Z,23.15
2018-04-17T09:37:27.291Z,23.80
2018-04-17T09:43:31.749Z,24.11
2018-04-17T09:49:36.146Z,23.63
2018-04-17T09:55:41.026Z,22.73
2018-04-17T10:01:45.416Z,23.64
2018-04-17T10:07:49.849Z,24.25
2018-04-17T10:13:54.325Z,24.90
2018-04-17T10:19:58.818Z,25.02
2018-04-17T10:26:03.214Z,26.31
2018-04-17T10:32:07.613Z,27.55
2018-04-17T10:38:12.080Z,28.10
2018-04-17T10:44:16.574Z,29.29
2018-04-17T10:50:20.979Z,30.63
2018-04-17T10:56:26.190Z,30.15
2018-04-17T11:02:30.652Z,31.45
2018-04-17T11:08:35.127Z,30.49
2018-04-17T11:14:39.657Z,32.07
2018-04-17T11:20:44.254Z,34.17
2018-04-17T11:26:48.663Z,34.78
2018-04-17T11:32:53.034Z,34.27
2018-04-17T11:38:57.425Z,34.27
2018-04-17T11:45:01.819Z,33.64
2018-04-17T11:51:06.175Z,31.90
2018-04-17T11:57:10.563Z,29.82
2018-04-17T12:03:14.997Z,30.24
2018-04-17T12:09:20.171Z,30.33
2018-04-17T12:15:24.585Z,33.22
2018-04-17T12:21:28.973Z,34.94
2018-04-17T12:27:33.344Z,32.94
2018-04-17T12:33:37.766Z,32.42
2018-04-17T12:39:42.575Z,33.08
2018-04-17T12:45:47.785Z,34.48
2018-04-17T12:51:52.322Z,34.53
2018-04-17T12:57:56.672Z,34.76
2018-04-17T13:04:01.144Z,35.61
2018-04-17T13:10:05.518Z,36.44
2018-04-17T13:16:10.148Z,36.93
2018-04-17T13:22:17.600Z,35.99
2018-04-17T13:28:22.819Z,35.48
2018-04-17T13:34:27.189Z,36.45
2018-04-17T13:40:31.612Z,34.46
2018-04-17T13:46:35.997Z,33.82
2018-04-17T13:52:40.435Z,35.18
2018-04-17T13:58:44.888Z,36.40
2018-04-17T14:04:49.372Z,33.49
2018-04-17T14:10:53.856Z,34.31
2018-04-17T14:16:58.222Z,34.04
2018-04-17T14:23:02.635Z,34.26
2018-04-17T14:29:07.005Z,34.61
2018-04-17T14:35:11.943Z,36.48
2018-04-17T14:41:17.110Z,35.88
2018-04-17T14:47:21.566Z,33.92
2018-04-17T14:53:26.028Z,36.15
2018-04-17T14:59:30.490Z,36.79
2018-04-17T15:05:34.905Z,34.08
2018-04-17T15:11:39.291Z,35.78
2018-04-17T15:17:43.734Z,32.71
2018-04-17T15:23:48.169Z,33.69
2018-04-17T15:29:53.306Z,36.47
2018-04-17T15:35:57.681Z,36.83
2018-04-17T15:42:02.132Z,34.56
2018-04-17T15:48:06.622Z,36.04
2018-04-17T15:54:11.207Z,36.45
2018-04-17T16:00:15.663Z,37.36
2018-04-17T16:06:20.079Z,37.81
2018-04-17T16:12:24.435Z,39.23
2018-04-17T16:18:28.801Z,37.89
2018-04-17T16:24:33.285Z,33.50
2018-04-17T16:30:37.668Z,31.67
2018-04-17T16:36:42.372Z,30.62
2018-04-17T16:42:46.768Z,29.61
2018-04-17T16:48:51.123Z,28.51
2018-04-17T16:54:55.512Z,27.77
2018-04-17T17:00:59.916Z,26.84
2018-04-17T17:07:05.050Z,25.65
2018-04-17T17:13:09.620Z,25.14
2018-04-17T17:19:14.104Z,24.91
2018-04-17T17:25:18.485Z,23.88
2018-04-17T17:31:22.874Z,22.77
2018-04-17T17:37:27.315Z,22.45
2018-04-17T17:43:31.680Z,21.85
2018-04-17T17:49:36.060Z,21.12
2018-04-17T17:55:40.526Z,20.25
2018-04-17T18:01:45.307Z,19.73
2018-04-17T18:07:49.677Z,19.38
2018-04-17T18:13:54.824Z,19.00
2018-04-17T18:19:59.181Z,18.44
2018-04-17T18:26:03.547Z,18.14
2018-04-17T18:32:07.970Z,17.92
2018-04-17T18:38:12.565Z,17.71
2018-04-17T18:44:17.064Z,17.63
2018-04-17T18:50:21.424Z,17.44
2018-04-17T18:56:26.689Z,17.06
2018-04-17T19:02:31.058Z,17.08
2018-04-17T19:08:35.493Z,16.82
2018-04-17T19:14:40.077Z,16.72
2018-04-17T19:20:44.515Z,16.83
2018-04-17T19:26:49.728Z,16.85
2018-04-17T19:32:54.113Z,16.88
2018-04-17T19:38:58.499Z,16.78
2018-04-17T19:45:02.936Z,16.67
2018-04-17T19:51:08.111Z,16.52
2018-04-17T19:57:12.568Z,16.39
2018-04-17T20:03:16.971Z,16.41
2018-04-17T20:09:21.353Z,16.69
2018-04-17T20:15:25.771Z,16.50
2018-04-17T20:21:30.156Z,16.30
2018-04-17T20:27:34.528Z,16.09
2018-04-17T20:33:38.886Z,16.18
2018-04-17T20:39:43.283Z,16.12
2018-04-17T20:45:47.664Z,15.99
2018-04-17T20:51:52.032Z,15.89
2018-04-17T20:57:56.584Z,15.92
2018-04-17T21:04:01.745Z,15.69
2018-04-17T21:10:06.158Z,15.45
2018-04-17T21:16:10.754Z,15.50
2018-04-17T21:22:15.124Z,15.41
2018-04-17T21:28:19.528Z,15.33
2018-04-17T21:34:23.882Z,15.35
2018-04-17T21:40:28.276Z,15.14
2018-04-17T21:46:32.712Z,14.88
2018-04-17T21:52:37.173Z,14.81
2018-04-17T21:58:41.558Z,14.69
2018-04-17T22:04:45.962Z,14.38
2018-04-17T22:10:50.351Z,14.15
2018-04-17T22:16:54.879Z,14.07
2018-04-17T22:22:59.380Z,14.12
2018-04-17T22:29:03.748Z,14.35
2018-04-17T22:35:08.127Z,14.38
2018-04-17T22:41:12.727Z,14.16
2018-04-17T22:47:17.166Z,14.34
2018-04-17T22:53:21.526Z,14.16
2018-04-17T22:59:25.905Z,14.16
2018-04-17T23:05:31.233Z,13.96
2018-04-17T23:11:35.853Z,13.73
2018-04-17T23:17:40.226Z,13.62
2018-04-17T23:23:44.677Z,13.44
2018-04-17T23:29:49.030Z,13.21
2018-04-17T23:35:53.434Z,13.03
2018-04-17T23:41:57.811Z,12.96
2018-04-17T23:48:02.175Z,12.78
2018-04-17T23:54:06.551Z,12.73
